createdAt,value
2023-01-07T00:01:03.770Z,-2.96
2023-01-07T00:03:33.475Z,-2.96
2023-01-07T00:06:01.751Z,-2.97
2023-01-07T00:08:31.689Z,-2.97
2023-01-07T00:11:01.919Z,-3.01
2023-01-07T00:13:29.989Z,-2.99
2023-01-07T00:15:59.587Z,-3.00
2023-01-07T00:18:27.689Z,-3.01
2023-01-07T00:20:59.173Z,-3.03
2023-01-07T00:23:27.784Z,-3.06
2023-01-07T00:26:01.627Z,-3.11
2023-01-07T00:28:29.881Z,-3.14
2023-01-07T00:31:00.962Z,-3.16
2023-01-07T00:33:29.391Z,-3.14
2023-01-07T00:36:02.627Z,-3.16
2023-01-07T00:38:30.706Z,-3.18
2023-01-07T00:40:58.758Z,-3.21
2023-01-07T00:43:26.701Z,-3.22
2023-01-07T00:45:54.898Z,-3.26
2023-01-07T00:48:23.969Z,-3.29
2023-01-07T00:50:53.159Z,-3.28
2023-01-07T00:53:22.873Z,-3.27
2023-01-07T00:55:51.622Z,-3.20
2023-01-07T00:58:22.941Z,-3.17
2023-01-07T01:00:51.362Z,-3.12
2023-01-07T01:03:19.331Z,-3.06
2023-01-07T01:05:47.241Z,-3.04
2023-01-07T01:08:15.153Z,-2.98
2023-01-07T01:10:44.393Z,-2.94
2023-01-07T01:13:18.019Z,-2.90
2023-01-07T01:15:47.276Z,-2.87
2023-01-07T01:18:15.324Z,-2.84
2023-01-07T01:20:43.604Z,-2.78
2023-01-07T01:23:11.464Z,-2.76
2023-01-07T01:25:39.316Z,-2.71
2023-01-07T01:28:08.687Z,-2.68
2023-01-07T01:30:36.555Z,-2.68
2023-01-07T01:33:04.361Z,-2.65
2023-01-07T01:35:32.188Z,-2.64
2023-01-07T01:38:01.727Z,-2.57
2023-01-07T01:40:30.669Z,-2.57
2023-01-07T01:42:58.641Z,-2.54
2023-01-07T01:45:29.235Z,-2.52
2023-01-07T01:48:01.009Z,-2.51
2023-01-07T01:50:32.412Z,-2.49
2023-01-07T01:53:04.858Z,-2.47
2023-01-07T01:55:37.148Z,-2.44
2023-01-07T01:58:11.266Z,-2.45
2023-01-07T02:00:40.703Z,-2.42
2023-01-07T02:03:10.717Z,-2.40
2023-01-07T02:05:41.215Z,-2.42
2023-01-07T02:08:09.577Z,-2.40
2023-01-07T02:10:38.881Z,-2.37
2023-01-07T02:13:26.480Z,-2.36
2023-01-07T02:16:04.786Z,-2.34
2023-01-07T02:18:49.068Z,-2.32
2023-01-07T02:21:32.009Z,-2.31
2023-01-07T02:24:21.424Z,-2.27
2023-01-07T02:27:11.549Z,-2.27
2023-01-07T02:30:36.019Z,-2.26
2023-01-07T02:33:37.632Z,-2.24
2023-01-07T02:36:20.248Z,-2.22
2023-01-07T02:39:00.599Z,-2.20
2023-01-07T02:41:39.549Z,-2.18
2023-01-07T02:44:13.068Z,-2.18
2023-01-07T02:46:47.380Z,-2.17
2023-01-07T02:49:18.304Z,-2.15
2023-01-07T02:51:49.632Z,-2.14
2023-01-07T02:54:22.932Z,-2.12
2023-01-07T02:57:15.405Z,-2.11
2023-01-07T02:59:58.155Z,-2.09
2023-01-07T03:02:45.371Z,-2.07
2023-01-07T03:05:28.954Z,-2.08
2023-01-07T03:08:11.241Z,-2.06
2023-01-07T03:10:42.335Z,-2.05
2023-01-07T03:13:15.545Z,-2.05
2023-01-07T03:15:49.761Z,-2.05
2023-01-07T03:18:22.515Z,-2.02
2023-01-07T03:20:58.444Z,-2.02
2023-01-07T03:23:29.836Z,-2.00
2023-01-07T03:26:01.980Z,-1.97
2023-01-07T03:28:35.243Z,-1.98
2023-01-07T03:31:06.251Z,-1.98
2023-01-07T03:33:40.821Z,-1.95
2023-01-07T03:36:13.531Z,-1.95
2023-01-07T03:38:45.684Z,-1.92
2023-01-07T03:41:33.574Z,-1.90
2023-01-07T03:44:00.560Z,-1.90
2023-01-07T03:46:28.909Z,-1.88
2023-01-07T03:48:59.061Z,-1.89
2023-01-07T03:51:28.371Z,-1.87
2023-01-07T03:53:56.262Z,-1.87
2023-01-07T03:56:24.197Z,-1.86
2023-01-07T03:58:52.108Z,-1.82
2023-01-07T04:01:20.182Z,-1.82
2023-01-07T04:03:48.242Z,-1.80
2023-01-07T04:06:16.121Z,-1.81
2023-01-07T04:08:45.439Z,-1.80
2023-01-07T04:11:13.346Z,-1.78
2023-01-07T04:13:41.221Z,-1.76
2023-01-07T04:16:09.452Z,-1.76
2023-01-07T04:18:37.347Z,-1.76
2023-01-07T04:21:05.467Z,-1.72
2023-01-07T04:23:33.361Z,-1.72
2023-01-07T04:26:04.872Z,-1.70
2023-01-07T04:28:32.770Z,-1.70
2023-01-07T04:31:00.929Z,-1.69
2023-01-07T04:33:28.821Z,-1.69
2023-01-07T04:35:57.786Z,-1.68
2023-01-07T04:38:25.737Z,-1.68
2023-01-07T04:40:53.673Z,-1.66
2023-01-07T04:43:23.036Z,-1.64
2023-01-07T04:45:50.988Z,-1.64
2023-01-07T04:48:19.043Z,-1.64
2023-01-07T04:50:48.028Z,-1.62
2023-01-07T04:53:16.027Z,-1.60
2023-01-07T04:55:46.221Z,-1.58
2023-01-07T04:58:14.536Z,-1.57
2023-01-07T05:00:43.822Z,-1.55
2023-01-07T05:03:11.698Z,-1.54
2023-01-07T05:05:39.558Z,-1.52
2023-01-07T05:08:07.793Z,-1.50
2023-01-07T05:10:35.641Z,-1.50
2023-01-07T05:13:06.886Z,-1.46
2023-01-07T05:15:35.125Z,-1.45
2023-01-07T05:18:04.377Z,-1.44
2023-01-07T05:20:32.249Z,-1.44
2023-01-07T05:23:00.106Z,-1.41
2023-01-07T05:25:28.032Z,-1.39
2023-01-07T05:27:55.993Z,-1.38
2023-01-07T05:30:23.923Z,-1.36
2023-01-07T05:32:51.777Z,-1.32
2023-01-07T05:35:21.535Z,-1.29
2023-01-07T05:37:49.375Z,-1.28
2023-01-07T05:40:17.366Z,-1.26
2023-01-07T05:42:45.234Z,-1.22
2023-01-07T05:45:13.280Z,-1.18
2023-01-07T05:47:41.151Z,-1.16
2023-01-07T05:50:09.439Z,-1.15
2023-01-07T05:52:38.696Z,-1.10
2023-01-07T05:55:08.521Z,-1.07
2023-01-07T05:57:36.392Z,-1.03
2023-01-07T06:00:05.390Z,-1.02
2023-01-07T06:02:33.260Z,-0.99
2023-01-07T06:05:01.171Z,-0.97
2023-01-07T06:07:29.340Z,-0.94
2023-01-07T06:09:58.636Z,-0.93
2023-01-07T06:12:26.615Z,-0.91
2023-01-07T06:14:54.566Z,-0.86
2023-01-07T06:17:22.431Z,-0.84
2023-01-07T06:19:50.364Z,-0.82
2023-01-07T06:22:18.357Z,-0.82
2023-01-07T06:24:46.310Z,-0.82
2023-01-07T06:27:15.604Z,-0.79
2023-01-07T06:29:43.618Z,-0.77
2023-01-07T06:32:11.592Z,-0.75
2023-01-07T06:34:39.619Z,-0.77
2023-01-07T06:37:07.823Z,-0.75
2023-01-07T06:39:35.729Z,-0.73
2023-01-07T06:42:03.606Z,-0.72
2023-01-07T06:44:32.799Z,-0.72
2023-01-07T06:47:00.754Z,-0.72
2023-01-07T06:49:28.660Z,-0.68
2023-01-07T06:51:56.540Z,-0.68
2023-01-07T06:54:24.402Z,-0.65
2023-01-07T06:56:52.360Z,-0.63
2023-01-07T06:59:20.260Z,-0.61
2023-01-07T07:01:49.616Z,-0.61
2023-01-07T07:04:18.043Z,-0.60
2023-01-07T07:06:45.956Z,-0.58
2023-01-07T07:09:13.959Z,-0.57
2023-01-07T07:11:41.805Z,-0.54
2023-01-07T07:14:09.674Z,-0.54
2023-01-07T07:16:37.535Z,-0.53
2023-01-07T07:19:06.777Z,-0.50
2023-01-07T07:21:34.631Z,-0.50
2023-01-07T07:24:06.080Z,-0.47
2023-01-07T07:26:33.927Z,-0.48
2023-01-07T07:29:04.168Z,-0.45
2023-01-07T07:31:32.095Z,-0.44
2023-01-07T07:33:59.993Z,-0.41
2023-01-07T07:36:29.340Z,-0.40
2023-01-07T07:38:57.290Z,-0.38
2023-01-07T07:41:25.317Z,-0.37
2023-01-07T07:43:53.197Z,-0.35
2023-01-07T07:46:21.167Z,-0.35
2023-01-07T07:48:50.107Z,-0.32
2023-01-07T07:51:18.373Z,-0.32
2023-01-07T07:53:47.629Z,-0.28
2023-01-07T07:56:15.656Z,-0.26
2023-01-07T07:58:44.129Z,-0.24
2023-01-07T08:01:12.031Z,-0.24
2023-01-07T08:03:40.030Z,-0.19
2023-01-07T08:06:08.761Z,-0.15
2023-01-07T08:08:36.696Z,-0.12
2023-01-07T08:11:06.382Z,-0.11
2023-01-07T08:13:34.259Z,-0.08
2023-01-07T08:16:02.379Z,-0.08
2023-01-07T08:18:30.320Z,-0.05
2023-01-07T08:20:58.281Z,-0.04
2023-01-07T08:23:28.061Z,-0.02
2023-01-07T08:26:00.822Z,0.00
2023-01-07T08:28:30.218Z,0.02
2023-01-07T08:30:58.131Z,0.06
2023-01-07T08:33:26.064Z,0.09
2023-01-07T08:35:54.007Z,0.12
2023-01-07T08:38:21.936Z,0.14
2023-01-07T08:40:50.697Z,0.16
2023-01-07T08:43:18.512Z,0.19
2023-01-07T08:45:50.967Z,0.16
2023-01-07T08:48:19.062Z,0.20
2023-01-07T08:50:52.124Z,0.23
2023-01-07T08:53:20.445Z,0.24
2023-01-07T08:55:48.724Z,0.29
2023-01-07T08:58:16.934Z,0.30
2023-01-07T09:00:45.110Z,0.32
2023-01-07T09:03:14.511Z,0.31
2023-01-07T09:05:42.381Z,0.34
2023-01-07T09:08:10.341Z,0.37
2023-01-07T09:10:38.162Z,0.39
2023-01-07T09:13:06.212Z,0.41
2023-01-07T09:15:34.253Z,0.43
2023-01-07T09:18:03.672Z,0.46
2023-01-07T09:20:33.089Z,0.50
2023-01-07T09:23:01.237Z,0.53
2023-01-07T09:25:29.139Z,0.56
2023-01-07T09:27:57.101Z,0.59
2023-01-07T09:30:25.906Z,0.61
2023-01-07T09:32:53.780Z,0.61
2023-01-07T09:35:21.741Z,0.66
2023-01-07T09:37:53.392Z,0.69
2023-01-07T09:40:26.233Z,0.69
2023-01-07T09:43:01.802Z,0.69
2023-01-07T09:45:33.726Z,0.69
2023-01-07T09:48:05.508Z,0.68
2023-01-07T09:50:44.479Z,0.70
2023-01-07T09:53:19.721Z,0.70
2023-01-07T09:56:12.043Z,0.71
2023-01-07T09:58:40.439Z,0.73
2023-01-07T10:01:15.443Z,0.75
2023-01-07T10:04:01.535Z,0.76
2023-01-07T10:06:43.402Z,0.78
2023-01-07T10:09:28.930Z,0.80
2023-01-07T10:12:04.809Z,0.81
2023-01-07T10:15:07.076Z,0.83
2023-01-07T10:17:59.722Z,0.86
2023-01-07T10:20:34.692Z,0.87
2023-01-07T10:23:08.963Z,0.91
2023-01-07T10:25:44.055Z,0.90
2023-01-07T10:28:19.107Z,0.94
2023-01-07T10:30:52.257Z,0.94
2023-01-07T10:33:25.112Z,0.95
2023-01-07T10:36:02.330Z,1.00
2023-01-07T10:38:34.243Z,1.02
2023-01-07T10:41:11.067Z,1.08
2023-01-07T10:43:57.008Z,1.07
2023-01-07T10:46:42.951Z,1.08
2023-01-07T10:49:29.982Z,1.07
2023-01-07T10:52:11.311Z,1.08
2023-01-07T10:54:56.451Z,1.05
2023-01-07T10:57:28.883Z,1.05
2023-01-07T11:00:02.510Z,1.05
2023-01-07T11:02:30.771Z,1.07
2023-01-07T11:05:00.393Z,1.08
2023-01-07T11:07:33.177Z,1.07
2023-01-07T11:10:04.268Z,1.11
2023-01-07T11:12:39.200Z,1.09
2023-01-07T11:15:15.020Z,1.10
2023-01-07T11:17:47.095Z,1.10
2023-01-07T11:20:15.014Z,1.10
2023-01-07T11:22:42.951Z,1.09
2023-01-07T11:25:29.119Z,1.08
2023-01-07T11:28:03.317Z,1.07
2023-01-07T11:30:34.027Z,1.07
2023-01-07T11:33:05.515Z,1.09
2023-01-07T11:35:33.813Z,1.10
2023-01-07T11:38:01.886Z,1.11
2023-01-07T11:40:32.493Z,1.11
2023-01-07T11:43:03.521Z,1.12
2023-01-07T11:45:34.294Z,1.10
2023-01-07T11:48:08.015Z,1.11
2023-01-07T11:50:38.464Z,1.16
2023-01-07T11:53:22.887Z,1.18
2023-01-07T11:55:59.176Z,1.17
2023-01-07T11:58:31.259Z,1.21
2023-01-07T12:01:21.015Z,1.22
2023-01-07T12:04:13.788Z,1.22
2023-01-07T12:06:48.560Z,1.24
2023-01-07T12:09:28.845Z,1.27
2023-01-07T12:11:59.832Z,1.26
2023-01-07T12:14:32.478Z,1.27
2023-01-07T12:17:11.538Z,1.28
2023-01-07T12:20:32.853Z,1.29
2023-01-07T12:23:15.063Z,1.30
2023-01-07T12:25:53.797Z,1.27
2023-01-07T12:28:29.237Z,1.30
2023-01-07T12:31:23.251Z,1.31
2023-01-07T12:34:05.888Z,1.30
2023-01-07T12:36:45.396Z,1.29
2023-01-07T12:39:19.476Z,1.30
2023-01-07T12:41:55.449Z,1.29
2023-01-07T12:44:24.144Z,1.30
2023-01-07T12:47:31.249Z,1.29
2023-01-07T12:49:56.720Z,1.28
2023-01-07T12:52:36.061Z,1.26
2023-01-07T12:55:10.593Z,1.23
2023-01-07T12:57:41.230Z,1.23
2023-01-07T13:00:16.880Z,1.22
2023-01-07T13:02:54.528Z,1.21
2023-01-07T13:05:27.327Z,1.21
2023-01-07T13:08:04.104Z,1.19
2023-01-07T13:10:37.654Z,1.19
2023-01-07T13:13:10.607Z,1.19
2023-01-07T13:15:42.671Z,1.18
2023-01-07T13:18:17.134Z,1.21
2023-01-07T13:21:06.606Z,1.21
2023-01-07T13:23:52.344Z,1.18
2023-01-07T13:26:33.029Z,1.20
2023-01-07T13:29:20.879Z,1.19
2023-01-07T13:32:15.148Z,1.22
2023-01-07T13:34:58.884Z,1.22
2023-01-07T13:37:50.991Z,1.23
2023-01-07T13:40:45.404Z,1.25
2023-01-07T13:43:27.459Z,1.24
2023-01-07T13:46:01.062Z,1.23
2023-01-07T13:48:29.817Z,1.24
2023-01-07T13:51:02.171Z,1.25
2023-01-07T13:53:46.726Z,1.27
2023-01-07T13:56:44.685Z,1.26
2023-01-07T13:59:32.673Z,1.24
2023-01-07T14:02:19.572Z,1.25
2023-01-07T14:04:50.328Z,1.24
2023-01-07T14:07:20.890Z,1.26
2023-01-07T14:09:48.861Z,1.27
2023-01-07T14:12:52.027Z,1.26
2023-01-07T14:15:56.197Z,1.28
2023-01-07T14:18:48.009Z,1.29
2023-01-07T14:21:43.531Z,1.29
2023-01-07T14:24:29.861Z,1.28
2023-01-07T14:27:07.819Z,1.30
2023-01-07T14:29:42.595Z,1.29
2023-01-07T14:32:23.112Z,1.30
2023-01-07T14:34:56.924Z,1.30
2023-01-07T14:37:45.170Z,1.32
2023-01-07T14:40:58.867Z,1.34
2023-01-07T14:44:05.501Z,1.34
2023-01-07T14:46:52.786Z,1.34
2023-01-07T14:49:45.787Z,1.36
2023-01-07T14:52:28.001Z,1.36
2023-01-07T14:55:29.044Z,1.38
2023-01-07T14:58:13.427Z,1.38
2023-01-07T15:01:01.030Z,1.38
2023-01-07T15:03:58.178Z,1.37
2023-01-07T15:06:29.039Z,1.39
2023-01-07T15:09:22.050Z,1.39
2023-01-07T15:12:08.928Z,1.40
2023-01-07T15:15:00.836Z,1.41
2023-01-07T15:17:30.326Z,1.41
2023-01-07T15:19:59.047Z,1.41
2023-01-07T15:22:50.156Z,1.43
2023-01-07T15:25:28.890Z,1.42
2023-01-07T15:28:06.283Z,1.44
2023-01-07T15:30:43.568Z,1.41
2023-01-07T15:33:31.607Z,1.46
2023-01-07T15:35:59.795Z,1.46
2023-01-07T15:38:30.112Z,1.46
2023-01-07T15:41:00.091Z,1.46
2023-01-07T15:43:30.891Z,1.46
2023-01-07T15:46:01.111Z,1.47
2023-01-07T15:48:30.365Z,1.45
2023-01-07T15:50:58.485Z,1.47
2023-01-07T15:53:30.466Z,1.47
2023-01-07T15:56:03.229Z,1.47
2023-01-07T15:58:37.610Z,1.47
2023-01-07T16:01:07.019Z,1.46
2023-01-07T16:03:39.568Z,1.49
2023-01-07T16:06:27.473Z,1.49
2023-01-07T16:08:55.603Z,1.50
2023-01-07T16:11:25.868Z,1.48
2023-01-07T16:13:57.100Z,1.48
2023-01-07T16:16:25.347Z,1.47
2023-01-07T16:18:58.854Z,1.51
2023-01-07T16:21:30.764Z,1.50
2023-01-07T16:23:58.810Z,1.48
2023-01-07T16:26:36.883Z,1.51
2023-01-07T16:29:10.489Z,1.51
2023-01-07T16:31:39.057Z,1.52
2023-01-07T16:34:34.857Z,1.52
2023-01-07T16:37:05.423Z,1.53
2023-01-07T16:39:36.096Z,1.53
2023-01-07T16:42:17.988Z,1.54
2023-01-07T16:45:03.332Z,1.54
2023-01-07T16:47:32.664Z,1.50
2023-01-07T16:50:36.125Z,1.54
2023-01-07T16:53:04.623Z,1.56
2023-01-07T16:55:48.364Z,1.55
2023-01-07T16:58:27.956Z,1.57
2023-01-07T17:00:58.660Z,1.56
2023-01-07T17:03:27.525Z,1.55
2023-01-07T17:06:03.385Z,1.57
2023-01-07T17:08:32.593Z,1.54
2023-01-07T17:11:05.935Z,1.53
2023-01-07T17:13:38.842Z,1.55
2023-01-07T17:16:24.625Z,1.55
2023-01-07T17:18:52.993Z,1.57
2023-01-07T17:21:39.666Z,1.57
2023-01-07T17:24:22.477Z,1.60
2023-01-07T17:26:51.899Z,1.63
2023-01-07T17:29:19.933Z,1.62
2023-01-07T17:31:48.333Z,1.62
2023-01-07T17:34:18.080Z,1.62
2023-01-07T17:36:47.448Z,1.60
2023-01-07T17:39:15.329Z,1.62
2023-01-07T17:42:00.820Z,1.64
2023-01-07T17:44:28.736Z,1.65
2023-01-07T17:46:56.629Z,1.64
2023-01-07T17:49:24.545Z,1.66
2023-01-07T17:51:54.888Z,1.66
2023-01-07T17:54:25.044Z,1.67
2023-01-07T17:56:53.254Z,1.68
2023-01-07T17:59:23.518Z,1.66
2023-01-07T18:01:54.788Z,1.67
2023-01-07T18:04:23.164Z,1.66
2023-01-07T18:06:51.151Z,1.67
2023-01-07T18:09:20.427Z,1.68
2023-01-07T18:12:05.808Z,1.70
2023-01-07T18:14:33.849Z,1.68
2023-01-07T18:17:01.998Z,1.68
2023-01-07T18:19:29.907Z,1.68
2023-01-07T18:21:57.807Z,1.71
2023-01-07T18:24:27.129Z,1.71
2023-01-07T18:26:56.524Z,1.72
2023-01-07T18:29:24.880Z,1.71
2023-01-07T18:31:52.809Z,1.73
2023-01-07T18:34:20.835Z,1.73
2023-01-07T18:36:48.749Z,1.73
2023-01-07T18:39:19.578Z,1.75
2023-01-07T18:41:50.189Z,1.71
2023-01-07T18:44:18.429Z,1.69
2023-01-07T18:46:46.352Z,1.72
2023-01-07T18:49:14.629Z,1.73
2023-01-07T18:51:42.560Z,1.72
2023-01-07T18:54:10.462Z,1.73
2023-01-07T18:56:38.437Z,1.74
2023-01-07T18:59:07.719Z,1.75
2023-01-07T19:01:35.706Z,1.78
2023-01-07T19:04:05.143Z,1.75
2023-01-07T19:06:33.484Z,1.77
2023-01-07T19:09:01.390Z,1.79
2023-01-07T19:11:29.336Z,1.79
2023-01-07T19:13:57.237Z,1.79
2023-01-07T19:16:26.567Z,1.78
2023-01-07T19:18:54.556Z,1.79
2023-01-07T19:21:22.536Z,1.81
2023-01-07T19:23:50.427Z,1.82
2023-01-07T19:26:18.363Z,1.81
2023-01-07T19:28:46.294Z,1.79
2023-01-07T19:31:14.584Z,1.80
2023-01-07T19:33:43.887Z,1.82
2023-01-07T19:36:13.375Z,1.82
2023-01-07T19:38:42.288Z,1.83
2023-01-07T19:41:11.433Z,1.85
2023-01-07T19:43:39.370Z,1.83
2023-01-07T19:46:09.477Z,1.84
2023-01-07T19:48:37.207Z,1.81
2023-01-07T19:51:07.951Z,1.83
2023-01-07T19:53:37.273Z,1.81
2023-01-07T19:56:07.828Z,1.84
2023-01-07T19:58:36.175Z,1.87
2023-01-07T20:01:04.744Z,1.85
2023-01-07T20:03:33.112Z,1.87
2023-01-07T20:06:04.896Z,1.87
2023-01-07T20:08:35.294Z,1.87
2023-01-07T20:11:03.262Z,1.90
2023-01-07T20:13:34.469Z,1.90
2023-01-07T20:16:05.977Z,1.89
2023-01-07T20:18:38.575Z,1.92
2023-01-07T20:21:06.811Z,1.92
2023-01-07T20:23:37.471Z,1.90
2023-01-07T20:26:07.327Z,1.93
2023-01-07T20:28:35.834Z,1.92
2023-01-07T20:31:05.811Z,1.91
2023-01-07T20:33:33.785Z,1.92
2023-01-07T20:36:02.530Z,1.94
2023-01-07T20:38:30.436Z,1.89
2023-01-07T20:41:00.283Z,1.89
2023-01-07T20:43:28.195Z,1.92
2023-01-07T20:46:00.817Z,1.89
2023-01-07T20:48:29.471Z,1.89
2023-01-07T20:50:58.172Z,1.89
2023-01-07T20:53:28.516Z,1.93
2023-01-07T20:56:01.327Z,1.94
2023-01-07T20:58:31.427Z,1.93
2023-01-07T21:00:59.222Z,1.90
2023-01-07T21:03:27.199Z,1.92
2023-01-07T21:05:56.847Z,1.89
2023-01-07T21:08:25.079Z,1.93
2023-01-07T21:10:53.404Z,1.92
2023-01-07T21:13:24.231Z,1.91
2023-01-07T21:15:52.496Z,1.89
2023-01-07T21:18:20.731Z,1.89
2023-01-07T21:20:48.705Z,1.90
2023-01-07T21:23:16.611Z,1.92
2023-01-07T21:25:48.635Z,1.90
2023-01-07T21:28:17.085Z,1.90
2023-01-07T21:30:48.696Z,1.89
2023-01-07T21:33:16.921Z,1.89
2023-01-07T21:35:44.836Z,1.89
2023-01-07T21:38:14.118Z,1.90
2023-01-07T21:40:42.046Z,1.89
2023-01-07T21:43:09.921Z,1.90
2023-01-07T21:45:38.193Z,1.90
2023-01-07T21:48:07.855Z,1.88
2023-01-07T21:50:35.804Z,1.89
2023-01-07T21:53:03.767Z,1.89
2023-01-07T21:55:31.660Z,1.89
2023-01-07T21:57:59.579Z,1.89
2023-01-07T22:00:27.501Z,1.88
2023-01-07T22:02:55.467Z,1.88
2023-01-07T22:05:24.804Z,1.89
2023-01-07T22:07:52.672Z,1.89
2023-01-07T22:10:20.600Z,1.88
2023-01-07T22:12:48.511Z,1.90
2023-01-07T22:15:16.434Z,1.90
2023-01-07T22:17:44.311Z,1.90
2023-01-07T22:20:13.411Z,1.91
2023-01-07T22:22:42.714Z,1.93
2023-01-07T22:25:11.226Z,1.92
2023-01-07T22:27:39.108Z,1.94
2023-01-07T22:30:09.651Z,1.96
2023-01-07T22:32:37.549Z,1.95
2023-01-07T22:35:06.136Z,1.94
2023-01-07T22:37:34.283Z,1.94
2023-01-07T22:40:07.093Z,1.94
2023-01-07T22:42:38.874Z,1.94
2023-01-07T22:45:11.140Z,1.95
2023-01-07T22:47:40.748Z,1.94
2023-01-07T22:50:10.443Z,1.93
2023-01-07T22:52:39.105Z,1.93
2023-01-07T22:55:09.439Z,1.90
2023-01-07T22:57:37.540Z,1.92
2023-01-07T23:00:07.768Z,1.91
2023-01-07T23:02:35.670Z,1.92
2023-01-07T23:05:03.590Z,1.92
2023-01-07T23:07:31.545Z,1.94
2023-01-07T23:09:59.455Z,1.95
2023-01-07T23:12:28.744Z,1.95
2023-01-07T23:14:56.656Z,1.97
2023-01-07T23:17:24.561Z,1.99
2023-01-07T23:19:52.485Z,1.99
2023-01-07T23:22:20.395Z,1.99
2023-01-07T23:24:48.296Z,1.99
2023-01-07T23:27:16.249Z,1.99
2023-01-07T23:29:45.583Z,2.00
2023-01-07T23:32:13.476Z,1.98
2023-01-07T23:34:41.866Z,1.99
2023-01-07T23:37:09.801Z,2.01
2023-01-07T23:39:37.709Z,2.00
2023-01-07T23:42:05.635Z,2.00
2023-01-07T23:44:33.545Z,1.99
2023-01-07T23:47:02.886Z,2.00
2023-01-07T23:49:31.894Z,1.99
2023-01-07T23:51:59.947Z,1.99
2023-01-07T23:54:27.841Z,2.00
2023-01-07T23:56:55.740Z,2.01
2023-01-07T23:59:23.695Z,1.99
